Time;durP1;ratioP1;P1;durP2;ratioP2;P2;SDS_P1;SDS_P2;PMS_P1;PMS_P2;Temp;Humidity;BMP_temperature;BMP_pressure;BME280_temperature;BME280_humidity;BME280_pressure;Samples;Min_cycle;Max_cycle;Signal;HPM_P1;HPM_P2
2022/11/18 00:01:05;;;;;;;;;;;;;;;5.93;100.00;99407.47;5009262;28;19920;-54
2022/11/18 00:03:30;;;;;;;;;;;;;;;5.92;100.00;99405.84;5010777;28;19953;-54
2022/11/18 00:05:56;;;;;;;;;;;;;;;5.92;100.00;99406.63;5009679;28;19960;-53
2022/11/18 00:08:22;;;;;;;;;;;;;;;5.89;100.00;99399.03;5011327;28;19913;-55
2022/11/18 00:10:47;;;;;;;;;;;;;;;5.87;100.00;99404.03;5010849;28;20352;-53
2022/11/18 00:16:01;;;;;;;;;;;;;;;5.82;100.00;99406.06;5011551;28;20317;-54
2022/11/18 00:18:26;;;;;;;;;;;;;;;5.77;100.00;99415.22;5010848;28;19917;-50
2022/11/18 00:20:51;;;;;;;;;;;;;;;5.74;100.00;99421.34;5011016;28;19920;-51
2022/11/18 00:23:16;;;;;;;;;;;;;;;5.71;100.00;99420.03;5011155;28;20003;-50
2022/11/18 00:25:42;;;;;;;;;;;;;;;5.69;100.00;99415.97;5010684;28;20010;-55
2022/11/18 00:28:07;;;;;;;;;;;;;;;5.67;100.00;99424.50;5010684;28;20007;-53
2022/11/18 00:30:32;;;;;;;;;;;;;;;5.64;100.00;99430.63;5006228;28;19921;-55
2022/11/18 00:32:57;;;;;;;;;;;;;;;5.64;100.00;99425.13;5010557;28;19944;-50
2022/11/18 00:35:22;;;;;;;;;;;;;;;5.63;100.00;99426.25;5010394;28;19923;-52
2022/11/18 00:37:48;;;;;;;;;;;;;;;5.61;100.00;99432.06;5011016;28;19913;-52
2022/11/18 00:40:13;;;;;;;;;;;;;;;5.59;100.00;99434.28;5010768;28;19924;-54
2022/11/18 00:42:50;;;;;;;;;;;;;;;5.56;100.00;99434.88;5011012;28;19948;-54
2022/11/18 00:45:15;;;;;;;;;;;;;;;5.54;100.00;99439.84;5010810;28;19913;-54
2022/11/18 00:47:41;;;;;;;;;;;;;;;5.53;100.00;99449.22;5010797;28;19917;-54
2022/11/18 00:50:06;;;;;;;;;;;;;;;5.55;100.00;99454.41;5010929;28;19991;-55
2022/11/18 00:52:31;;;;;;;;;;;;;;;5.57;100.00;99450.22;5011048;28;19941;-53
2022/11/18 00:54:57;;;;;;;;;;;;;;;5.62;100.00;99452.06;5010752;28;20000;-54
2022/11/18 00:57:22;;;;;;;;;;;;;;;5.65;100.00;99454.19;5011151;28;20353;-55
2022/11/18 00:59:47;;;;;;;;;;;;;;;5.69;100.00;99455.19;5010953;28;19913;-55
2022/11/18 01:02:12;;;;;;;;;;;;;;;5.73;100.00;99461.69;5010952;28;20019;-55
2022/11/18 01:04:37;;;;;;;;;;;;;;;5.78;100.00;99467.06;5010801;28;20306;-55
2022/11/18 01:07:03;;;;;;;;;;;;;;;5.84;100.00;99469.72;5008937;28;19928;-56
2022/11/18 01:09:28;;;;;;;;;;;;;;;5.89;100.00;99467.66;5010708;28;20321;-54
2022/11/18 01:14:38;;;;;;;;;;;;;;;5.99;100.00;99474.03;5011158;28;19944;-54
2022/11/18 01:17:03;;;;;;;;;;;;;;;6.02;100.00;99476.19;5014265;28;19925;-54
2022/11/18 01:19:28;;;;;;;;;;;;;;;6.07;100.00;99482.38;5013990;28;20394;-54
2022/11/18 01:21:55;;;;;;;;;;;;;;;6.12;100.00;99481.44;5013737;28;20431;-55
2022/11/18 01:24:21;;;;;;;;;;;;;;;6.15;100.00;99482.75;5013645;28;19980;-55
2022/11/18 01:26:46;;;;;;;;;;;;;;;6.18;100.00;99493.97;5009679;28;20052;-55
2022/11/18 01:29:11;;;;;;;;;;;;;;;6.21;100.00;99489.78;5013617;28;19917;-56
2022/11/18 01:31:36;;;;;;;;;;;;;;;6.24;100.00;99489.97;5013420;28;19913;-55
2022/11/18 01:34:02;;;;;;;;;;;;;;;6.28;100.00;99497.59;5011986;28;20320;-55
2022/11/18 01:36:28;;;;;;;;;;;;;;;6.32;100.00;99495.81;5011845;28;19920;-52
2022/11/18 01:38:53;;;;;;;;;;;;;;;6.34;100.00;99507.31;5012089;28;19921;-52
2022/11/18 01:41:19;;;;;;;;;;;;;;;6.37;100.00;99506.72;5013147;28;20727;-54
2022/11/18 01:43:50;;;;;;;;;;;;;;;6.42;100.00;99508.53;5013545;28;20004;-54
2022/11/18 01:46:15;;;;;;;;;;;;;;;6.45;100.00;99516.13;5013223;28;20016;-56
2022/11/18 01:48:41;;;;;;;;;;;;;;;6.47;100.00;99514.69;5012982;28;20024;-53
2022/11/18 01:51:10;;;;;;;;;;;;;;;6.49;100.00;99514.41;5012209;28;20324;-54
2022/11/18 01:53:37;;;;;;;;;;;;;;;6.51;100.00;99514.91;5012665;28;19933;-55
2022/11/18 01:56:06;;;;;;;;;;;;;;;6.54;100.00;99519.75;5011471;28;19913;-55
2022/11/18 01:58:36;;;;;;;;;;;;;;;6.56;100.00;99525.75;5012473;28;19923;-55
2022/11/18 02:01:03;;;;;;;;;;;;;;;6.59;100.00;99525.13;5011959;28;19914;-54
2022/11/18 02:03:28;;;;;;;;;;;;;;;6.62;100.00;99520.94;5012378;28;20004;-54
2022/11/18 02:05:54;;;;;;;;;;;;;;;6.62;100.00;99527.25;5012604;28;20019;-55
2022/11/18 02:08:21;;;;;;;;;;;;;;;6.65;100.00;99531.31;5012294;28;19921;-54
2022/11/18 02:10:46;;;;;;;;;;;;;;;6.66;100.00;99536.50;5012708;28;20293;-54
2022/11/18 02:13:12;;;;;;;;;;;;;;;6.67;100.00;99529.88;5012674;28;19952;-55
2022/11/18 02:15:45;;;;;;;;;;;;;;;6.71;100.00;99528.13;5010451;28;19952;-55
2022/11/18 02:18:13;;;;;;;;;;;;;;;6.75;100.00;99533.00;5024562;22;19974;-66
2022/11/18 02:20:40;;;;;;;;;;;;;;;6.76;100.00;99532.69;5012386;28;20020;-65
2022/11/18 02:23:11;;;;;;;;;;;;;;;6.77;100.00;99537.06;5005073;28;20127;-65
2022/11/18 02:25:52;;;;;;;;;;;;;;;6.79;100.00;99545.81;5012278;28;19924;-66
2022/11/18 02:28:35;;;;;;;;;;;;;;;6.81;100.00;99550.97;5012254;28;19918;-66
2022/11/18 02:31:07;;;;;;;;;;;;;;;6.82;100.00;99550.69;5011660;28;19913;-66
2022/11/18 02:33:37;;;;;;;;;;;;;;;6.84;100.00;99556.69;5012671;28;19956;-66
2022/11/18 02:36:24;;;;;;;;;;;;;;;6.85;100.00;99560.25;5012043;28;19913;-65
2022/11/18 02:38:56;;;;;;;;;;;;;;;6.86;100.00;99554.41;5012237;28;19975;-67
2022/11/18 02:41:25;;;;;;;;;;;;;;;6.90;100.00;99564.81;5012591;28;19968;-67
2022/11/18 02:43:54;;;;;;;;;;;;;;;6.91;100.00;99567.22;5012896;28;19914;-68
2022/11/18 02:46:23;;;;;;;;;;;;;;;6.92;100.00;99568.84;5012993;28;20025;-69
2022/11/18 02:48:50;;;;;;;;;;;;;;;6.93;100.00;99561.44;5012861;28;19973;-67
2022/11/18 02:51:22;;;;;;;;;;;;;;;6.94;100.00;99565.81;5012936;28;19921;-66
2022/11/18 02:53:48;;;;;;;;;;;;;;;6.94;100.00;99569.34;5012738;28;19913;-67
2022/11/18 02:56:15;;;;;;;;;;;;;;;6.94;100.00;99568.56;5012536;28;20003;-66
2022/11/18 02:58:40;;;;;;;;;;;;;;;6.95;100.00;99567.41;5012682;28;20025;-62
2022/11/18 03:01:05;;;;;;;;;;;;;;;6.96;100.00;99575.38;5011595;28;20437;-63
2022/11/18 03:03:32;;;;;;;;;;;;;;;6.96;100.00;99571.78;5012241;28;20324;-63
2022/11/18 03:06:16;;;;;;;;;;;;;;;6.97;100.00;99573.41;5012038;28;19921;-66
2022/11/18 03:08:46;;;;;;;;;;;;;;;6.96;100.00;99575.38;5011679;28;19917;-66
2022/11/18 03:11:17;;;;;;;;;;;;;;;6.97;100.00;99578.91;5010852;28;19913;-68
2022/11/18 03:13:47;;;;;;;;;;;;;;;6.97;100.00;99582.50;5011102;28;19968;-66
2022/11/18 03:16:16;;;;;;;;;;;;;;;7.00;100.00;99586.53;5010794;28;20340;-67
2022/11/18 03:18:49;;;;;;;;;;;;;;;7.00;100.00;99583.78;5003350;28;20058;-66
2022/11/18 03:21:14;;;;;;;;;;;;;;;7.00;100.00;99592.03;5011097;28;20456;-66
2022/11/18 03:23:41;;;;;;;;;;;;;;;7.01;100.00;99588.97;5011438;28;19921;-65
2022/11/18 03:26:10;;;;;;;;;;;;;;;7.01;100.00;99588.19;5010648;28;19919;-65
2022/11/18 03:28:42;;;;;;;;;;;;;;;7.01;100.00;99594.47;5010764;28;19984;-66
2022/11/18 03:31:10;;;;;;;;;;;;;;;7.05;100.00;99602.09;5010999;28;20369;-65
2022/11/18 03:33:38;;;;;;;;;;;;;;;7.05;100.00;99608.41;5011072;28;19914;-65
2022/11/18 03:36:05;;;;;;;;;;;;;;;7.06;100.00;99604.53;5010925;28;19920;-66
2022/11/18 03:38:32;;;;;;;;;;;;;;;7.08;100.00;99610.53;5009930;28;20000;-65
2022/11/18 03:41:00;;;;;;;;;;;;;;;7.10;100.00;99612.97;5009339;28;20364;-65
2022/11/18 03:43:28;;;;;;;;;;;;;;;7.11;100.00;99612.69;5011105;28;19967;-65
2022/11/18 03:46:02;;;;;;;;;;;;;;;7.12;100.00;99619.81;5010758;28;19988;-66
2022/11/18 03:48:29;;;;;;;;;;;;;;;7.14;100.00;99624.97;5009467;28;20308;-66
2022/11/18 03:51:05;;;;;;;;;;;;;;;7.14;100.00;99625.78;5010268;28;19913;-65
2022/11/18 03:53:32;;;;;;;;;;;;;;;7.13;100.00;99629.66;5011019;28;19913;-66
2022/11/18 03:56:01;;;;;;;;;;;;;;;7.15;100.00;99632.09;5010960;28;19921;-65
2022/11/18 03:58:31;;;;;;;;;;;;;;;7.14;100.00;99633.22;5010696;28;19996;-66
2022/11/18 04:01:00;;;;;;;;;;;;;;;7.14;100.00;99641.47;5010848;28;19917;-66
2022/11/18 04:03:25;;;;;;;;;;;;;;;7.15;100.00;99640.34;5011164;28;19920;-66
2022/11/18 04:05:55;;;;;;;;;;;;;;;7.15;100.00;99641.16;5010142;28;19925;-66
2022/11/18 04:08:23;;;;;;;;;;;;;;;7.15;100.00;99645.84;5010334;28;20388;-66
2022/11/18 04:10:52;;;;;;;;;;;;;;;7.14;100.00;99647.78;5010842;28;19921;-64
2022/11/18 04:13:21;;;;;;;;;;;;;;;7.15;100.00;99645.84;5011166;28;20261;-65
2022/11/18 04:15:46;;;;;;;;;;;;;;;7.13;100.00;99651.66;5007432;28;20269;-64
2022/11/18 04:18:12;;;;;;;;;;;;;;;7.11;100.00;99653.09;5010866;28;19917;-64
2022/11/18 04:20:37;;;;;;;;;;;;;;;7.10;100.00;99662.47;5010962;28;19913;-64
2022/11/18 04:23:03;;;;;;;;;;;;;;;7.09;100.00;99663.59;5011062;28;20349;-65
2022/11/18 04:25:29;;;;;;;;;;;;;;;7.07;100.00;99668.63;5011309;28;19913;-65
2022/11/18 04:27:54;;;;;;;;;;;;;;;7.05;100.00;99671.66;5011196;28;19918;-64
2022/11/18 04:30:20;;;;;;;;;;;;;;;7.03;100.00;99680.22;5011094;28;19968;-65
2022/11/18 04:32:45;;;;;;;;;;;;;;;7.02;100.00;99678.59;5011274;28;19924;-64
2022/11/18 04:35:10;;;;;;;;;;;;;;;7.00;100.00;99675.34;5011137;28;19917;-65
2022/11/18 04:37:35;;;;;;;;;;;;;;;6.97;100.00;99675.16;5011088;28;20508;-65
2022/11/18 04:40:00;;;;;;;;;;;;;;;6.96;100.00;99679.03;5011154;28;19917;-65
2022/11/18 04:42:25;;;;;;;;;;;;;;;6.94;100.00;99686.78;5010973;28;19917;-65
2022/11/18 04:44:51;;;;;;;;;;;;;;;6.93;100.00;99687.91;5010852;28;19924;-65
2022/11/18 04:47:16;;;;;;;;;;;;;;;6.90;100.00;99686.56;5010857;28;19914;-66
2022/11/18 04:49:41;;;;;;;;;;;;;;;6.81;100.00;99681.00;5010823;28;19960;-67
2022/11/18 04:52:06;;;;;;;;;;;;;;;6.85;100.00;99690.25;5013824;28;20000;-66
2022/11/18 04:54:32;;;;;;;;;;;;;;;6.78;100.00;99687.13;5013227;28;20020;-67
2022/11/18 04:56:57;;;;;;;;;;;;;;;6.79;100.00;99705.25;5014119;28;19913;-67
2022/11/18 04:59:23;;;;;;;;;;;;;;;6.77;100.00;99698.44;5013672;28;20052;-67
2022/11/18 05:01:49;;;;;;;;;;;;;;;6.77;100.00;99710.22;5013643;28;20373;-68
2022/11/18 05:04:16;;;;;;;;;;;;;;;6.76;100.00;99707.78;5013566;28;19988;-67
2022/11/18 05:06:41;;;;;;;;;;;;;;;6.72;100.00;99705.66;5013676;28;19921;-68
2022/11/18 05:09:07;;;;;;;;;;;;;;;6.68;100.00;99717.56;5014096;28;20431;-68
2022/11/18 05:14:16;;;;;;;;;;;;;;;6.61;100.00;99726.25;5014368;28;20064;-67
2022/11/18 05:16:41;;;;;;;;;;;;;;;6.60;100.00;99729.28;5013652;28;20393;-67
2022/11/18 05:19:06;;;;;;;;;;;;;;;6.56;100.00;99729.91;5014083;28;20533;-67
2022/11/18 05:21:32;;;;;;;;;;;;;;;6.52;100.00;99733.56;5013468;28;19920;-67
2022/11/18 05:23:58;;;;;;;;;;;;;;;6.47;100.00;99731.72;5014352;28;20297;-65
2022/11/18 05:26:23;;;;;;;;;;;;;;;6.43;100.00;99741.72;5012498;28;20015;-65
2022/11/18 05:28:48;;;;;;;;;;;;;;;6.37;100.00;99738.25;5012221;28;19921;-65
2022/11/18 05:31:14;;;;;;;;;;;;;;;6.34;100.00;99738.06;5013347;28;19917;-68
2022/11/18 05:33:40;;;;;;;;;;;;;;;6.29;100.00;99751.88;5013250;28;20457;-68
2022/11/18 05:36:07;;;;;;;;;;;;;;;6.22;100.00;99744.88;5013101;28;19971;-68
2022/11/18 05:38:32;;;;;;;;;;;;;;;6.18;100.00;99748.53;5013585;28;19914;-68
2022/11/18 05:40:58;;;;;;;;;;;;;;;6.13;100.00;99754.13;5012656;28;20013;-68
2022/11/18 05:43:23;;;;;;;;;;;;;;;6.09;100.00;99751.97;5013322;28;19917;-68
2022/11/18 05:45:50;;;;;;;;;;;;;;;6.05;100.00;99753.69;5013499;28;20257;-68
2022/11/18 05:48:15;;;;;;;;;;;;;;;6.01;100.00;99757.34;5013014;28;19970;-68
2022/11/18 05:50:40;;;;;;;;;;;;;;;5.96;100.00;99755.47;5012004;28;19925;-68
2022/11/18 05:53:05;;;;;;;;;;;;;;;5.92;100.00;99760.75;5012705;28;20328;-69
2022/11/18 05:55:37;;;;;;;;;;;;;;;5.91;100.00;99761.84;5012859;28;19952;-68
2022/11/18 05:58:02;;;;;;;;;;;;;;;5.88;100.00;99770.72;5013468;28;20368;-68
2022/11/18 06:00:28;;;;;;;;;;;;;;;5.85;100.00;99770.50;5012814;28;19996;-70
2022/11/18 06:02:54;;;;;;;;;;;;;;;5.82;100.00;99771.09;5012639;28;19968;-70
2022/11/18 06:05:20;;;;;;;;;;;;;;;5.78;100.00;99770.88;5009986;28;19913;-69
2022/11/18 06:07:46;;;;;;;;;;;;;;;5.76;100.00;99771.16;5008005;28;20391;-70
2022/11/18 06:10:15;;;;;;;;;;;;;;;5.73;100.00;99782.75;5012161;28;19918;-72
2022/11/18 06:12:41;;;;;;;;;;;;;;;5.72;100.00;99786.63;5012496;28;19913;-68
2022/11/18 06:15:18;;;;;;;;;;;;;;;5.69;100.00;99784.47;5013027;28;19917;-69
2022/11/18 06:17:50;;;;;;;;;;;;;;;5.67;100.00;99800.41;5010890;28;20274;-68
2022/11/18 06:20:19;;;;;;;;;;;;;;;5.65;100.00;99799.09;5012454;28;19920;-68
2022/11/18 06:22:45;;;;;;;;;;;;;;;5.62;100.00;99798.56;5011255;28;19933;-67
2022/11/18 06:25:10;;;;;;;;;;;;;;;5.61;100.00;99804.34;5011874;28;19925;-66
2022/11/18 06:27:36;;;;;;;;;;;;;;;5.58;100.00;99810.44;5011347;28;19917;-66
2022/11/18 06:30:01;;;;;;;;;;;;;;;5.57;100.00;99815.13;5011430;28;19917;-72
2022/11/18 06:32:26;;;;;;;;;;;;;;;5.54;100.00;99820.38;5011249;28;19917;-71
2022/11/18 06:34:51;;;;;;;;;;;;;;;5.51;100.00;99816.31;5011100;28;19921;-71
2022/11/18 06:37:19;;;;;;;;;;;;;;;5.50;100.00;99816.59;5011082;28;19956;-70
2022/11/18 06:39:44;;;;;;;;;;;;;;;5.46;100.00;99819.13;5011055;28;19921;-71
2022/11/18 06:42:09;;;;;;;;;;;;;;;5.44;100.00;99816.69;5011849;28;19913;-71
2022/11/18 06:44:35;;;;;;;;;;;;;;;5.41;100.00;99825.50;5010640;28;19920;-71
2022/11/18 06:47:01;;;;;;;;;;;;;;;5.40;100.00;99837.56;5010774;28;19914;-71
2022/11/18 06:49:27;;;;;;;;;;;;;;;5.39;100.00;99837.88;5011498;28;20012;-71
2022/11/18 06:51:52;;;;;;;;;;;;;;;5.38;100.00;99837.09;5010627;28;20017;-71
2022/11/18 06:54:17;;;;;;;;;;;;;;;5.37;100.00;99840.94;5010380;28;19991;-71
2022/11/18 06:56:43;;;;;;;;;;;;;;;5.35;100.00;99848.63;5010561;28;19918;-71
2022/11/18 06:59:08;;;;;;;;;;;;;;;5.34;100.00;99848.94;5011388;28;19921;-72
2022/11/18 07:01:34;;;;;;;;;;;;;;;5.34;100.00;99857.97;5004932;28;20124;-72
2022/11/18 07:04:00;;;;;;;;;;;;;;;5.33;100.00;99859.06;5012003;28;19922;-72
2022/11/18 07:06:26;;;;;;;;;;;;;;;5.33;100.00;99872.00;5011869;28;19920;-71
2022/11/18 07:08:52;;;;;;;;;;;;;;;5.33;100.00;99874.72;5011509;28;20023;-71
2022/11/18 07:11:19;;;;;;;;;;;;;;;5.33;100.00;99864.56;5010972;28;20004;-71
2022/11/18 07:13:45;;;;;;;;;;;;;;;5.35;100.00;99875.22;5010326;28;19917;-71
2022/11/18 07:16:15;;;;;;;;;;;;;;;5.37;100.00;99873.84;5010957;28;20289;-70
2022/11/18 07:18:41;;;;;;;;;;;;;;;5.39;100.00;99868.84;5011059;28;20380;-71
2022/11/18 07:21:07;;;;;;;;;;;;;;;5.39;100.00;99879.84;5012312;28;19972;-70
2022/11/18 07:23:33;;;;;;;;;;;;;;;5.42;100.00;99883.94;5012148;28;19914;-71
2022/11/18 07:25:58;;;;;;;;;;;;;;;5.40;100.00;99886.16;5011768;28;19919;-71
2022/11/18 07:28:24;;;;;;;;;;;;;;;5.42;100.00;99894.91;5011641;28;19972;-71
2022/11/18 07:30:49;;;;;;;;;;;;;;;5.44;100.00;99896.22;5011569;28;19913;-71
2022/11/18 07:33:14;;;;;;;;;;;;;;;5.47;100.00;99903.88;5011659;28;19914;-67
2022/11/18 07:35:39;;;;;;;;;;;;;;;5.48;100.00;99904.69;5011038;28;20343;-67
2022/11/18 07:38:05;;;;;;;;;;;;;;;5.50;100.00;99904.38;5011882;28;20024;-67
2022/11/18 07:40:30;;;;;;;;;;;;;;;5.53;100.00;99910.09;5011692;28;20334;-70
2022/11/18 07:42:55;;;;;;;;;;;;;;;5.56;100.00;99912.25;5011645;28;20023;-69
2022/11/18 07:45:20;;;;;;;;;;;;;;;5.59;100.00;99916.31;5011803;28;19924;-68
2022/11/18 07:47:45;;;;;;;;;;;;;;;5.63;100.00;99920.13;5011028;28;19925;-68
2022/11/18 07:50:10;;;;;;;;;;;;;;;5.67;100.00;99920.34;5011775;28;20075;-68
2022/11/18 07:52:36;;;;;;;;;;;;;;;5.70;100.00;99928.00;5011695;28;20058;-69
2022/11/18 07:55:01;;;;;;;;;;;;;;;5.72;100.00;99925.75;5011813;28;20663;-69
2022/11/18 07:57:26;;;;;;;;;;;;;;;5.75;100.00;99927.91;5008045;28;20012;-69
2022/11/18 07:59:51;;;;;;;;;;;;;;;5.78;100.00;99941.06;5011641;28;20032;-69
2022/11/18 08:02:16;;;;;;;;;;;;;;;5.80;100.00;99938.00;5011591;28;19924;-68
2022/11/18 08:04:41;;;;;;;;;;;;;;;5.83;100.00;99940.16;5011406;28;19995;-68
2022/11/18 08:07:09;;;;;;;;;;;;;;;5.84;100.00;99939.84;5011508;28;19937;-68
2022/11/18 08:09:35;;;;;;;;;;;;;;;5.88;100.00;99942.81;5011436;28;19920;-69
2022/11/18 08:12:00;;;;;;;;;;;;;;;5.92;100.00;99947.41;5011271;28;19913;-73
2022/11/18 08:14:26;;;;;;;;;;;;;;;5.98;100.00;99944.63;5010700;28;19913;-70
2022/11/18 08:16:51;;;;;;;;;;;;;;;6.06;100.00;99949.47;5011107;28;19928;-70
2022/11/18 08:19:16;;;;;;;;;;;;;;;6.09;100.00;99960.66;5009817;28;20329;-69
2022/11/18 08:21:41;;;;;;;;;;;;;;;6.14;100.00;99948.78;5011129;28;20369;-73
2022/11/18 08:24:08;;;;;;;;;;;;;;;6.19;100.00;99956.94;5011964;28;19924;-62
2022/11/18 08:26:34;;;;;;;;;;;;;;;6.23;100.00;99959.94;5014825;28;19948;-65
2022/11/18 08:28:59;;;;;;;;;;;;;;;6.23;100.00;99960.72;5015154;28;20377;-72
2022/11/18 08:31:25;;;;;;;;;;;;;;;6.30;100.00;99965.00;5015076;28;20008;-72
2022/11/18 08:33:54;;;;;;;;;;;;;;;6.31;100.00;99967.47;5014992;28;19921;-72
2022/11/18 08:36:20;;;;;;;;;;;;;;;6.35;100.00;99978.69;5014861;28;19921;-72
2022/11/18 08:38:45;;;;;;;;;;;;;;;6.35;100.00;99979.50;5013609;28;20291;-72
2022/11/18 08:41:15;;;;;;;;;;;;;;;6.37;100.00;99981.97;5014879;28;19950;-72
2022/11/18 08:43:40;;;;;;;;;;;;;;;6.39;100.00;99982.44;5014910;28;19928;-72
2022/11/18 08:46:05;;;;;;;;;;;;;;;6.39;100.00;99983.28;5014791;28;19925;-72
2022/11/18 08:48:30;;;;;;;;;;;;;;;6.42;100.00;99990.09;5014407;28;20384;-72
2022/11/18 08:50:57;;;;;;;;;;;;;;;6.45;100.00;99983.19;5012815;28;19914;-72
2022/11/18 08:53:22;;;;;;;;;;;;;;;6.49;100.00;99981.47;4997617;28;19914;-71
2022/11/18 08:55:53;;;;;;;;;;;;;;;6.55;100.00;99986.59;4991609;28;19924;-72
2022/11/18 08:58:18;;;;;;;;;;;;;;;6.62;100.00;99990.88;4993309;28;19937;-72
2022/11/18 09:00:43;;;;;;;;;;;;;;;6.66;100.00;99979.00;5004567;28;20284;-69
2022/11/18 09:03:08;;;;;;;;;;;;;;;6.74;100.00;99985.75;5013694;28;20387;-72
2022/11/18 09:05:33;;;;;;;;;;;;;;;6.79;100.00;99985.63;5013167;28;19914;-68
2022/11/18 09:07:59;;;;;;;;;;;;;;;6.94;100.00;99992.81;5012857;28;19925;-68
2022/11/18 09:10:24;;;;;;;;;;;;;;;6.96;100.00;99998.81;5010430;28;19921;-70
2022/11/18 09:12:49;;;;;;;;;;;;;;;6.95;100.00;99997.19;5001713;28;19968;-70
2022/11/18 09:15:14;;;;;;;;;;;;;;;6.96;100.00;100004.31;5012713;28;19932;-69
2022/11/18 09:17:40;;;;;;;;;;;;;;;6.99;100.00;100011.16;5011607;28;19921;-69
2022/11/18 09:20:05;;;;;;;;;;;;;;;7.00;100.00;100010.03;5012792;28;19914;-70
2022/11/18 09:22:30;;;;;;;;;;;;;;;7.00;100.00;100002.56;5012553;28;19917;-70
2022/11/18 09:24:55;;;;;;;;;;;;;;;7.02;100.00;100011.34;5012395;28;19925;-70
2022/11/18 09:27:21;;;;;;;;;;;;;;;7.04;100.00;100005.53;5012172;28;20000;-69
2022/11/18 09:29:46;;;;;;;;;;;;;;;7.08;100.00;100014.81;5012428;28;19940;-70
2022/11/18 09:32:11;;;;;;;;;;;;;;;7.13;100.00;100024.91;5012418;28;19913;-70
2022/11/18 09:34:36;;;;;;;;;;;;;;;7.17;100.00;100028.72;5012475;28;20019;-70
2022/11/18 09:37:02;;;;;;;;;;;;;;;7.21;100.00;100026.97;5011461;28;20319;-70
2022/11/18 09:39:27;;;;;;;;;;;;;;;7.27;100.00;100028.53;5012455;28;19944;-70
2022/11/18 09:42:02;;;;;;;;;;;;;;;7.34;100.00;100036.34;5012176;28;19963;-70
2022/11/18 09:44:36;;;;;;;;;;;;;;;7.43;100.00;100037.28;5012012;28;20404;-70
2022/11/18 09:47:13;;;;;;;;;;;;;;;7.49;100.00;100044.34;5004495;28;19920;-70
2022/11/18 09:49:39;;;;;;;;;;;;;;;7.55;100.00;100042.28;5012116;28;19917;-71
2022/11/18 09:52:37;;;;;;;;;;;;;;;7.58;100.00;100044.41;5012145;28;19913;-71
2022/11/18 09:55:20;;;;;;;;;;;;;;;7.63;100.00;100046.25;4989114;28;20419;-71
2022/11/18 09:57:47;;;;;;;;;;;;;;;7.69;100.00;100057.97;5012018;28;19913;-70
2022/11/18 10:00:14;;;;;;;;;;;;;;;7.72;100.00;100060.13;5011789;28;20443;-70
2022/11/18 10:02:45;;;;;;;;;;;;;;;7.78;100.00;100064.41;5011551;28;19921;-70
2022/11/18 10:05:18;;;;;;;;;;;;;;;7.86;100.00;100060.94;5011228;28;19917;-70
2022/11/18 10:07:55;;;;;;;;;;;;;;;7.95;100.00;100061.03;5009610;28;19924;-71
2022/11/18 10:10:25;;;;;;;;;;;;;;;7.95;100.00;100053.56;5009026;28;19918;-71
2022/11/18 10:12:55;;;;;;;;;;;;;;;8.14;100.00;100071.91;5011058;28;19917;-70
2022/11/18 10:15:36;;;;;;;;;;;;;;;8.30;100.00;100077.09;5011763;28;20336;-71
2022/11/18 10:18:27;;;;;;;;;;;;;;;8.38;100.00;100079.13;5011043;28;19940;-71
2022/11/18 10:21:03;;;;;;;;;;;;;;;8.47;100.00;100073.66;5008128;28;19921;-71
2022/11/18 10:23:32;;;;;;;;;;;;;;;8.55;100.00;100078.47;5026635;28;20284;-71
2022/11/18 10:25:57;;;;;;;;;;;;;;;8.62;100.00;100078.06;5012409;28;19917;-71
2022/11/18 10:28:24;;;;;;;;;;;;;;;8.65;100.00;100074.69;5012290;28;19920;-69
2022/11/18 10:30:49;;;;;;;;;;;;;;;8.75;100.00;100085.47;5011751;28;19923;-70
2022/11/18 10:33:21;;;;;;;;;;;;;;;8.86;100.00;100086.84;5011632;28;19917;-71
2022/11/18 10:35:46;;;;;;;;;;;;;;;8.91;100.00;100088.66;5011532;28;19940;-71
2022/11/18 10:38:11;;;;;;;;;;;;;;;8.98;100.00;100099.25;5010978;28;20435;-70
2022/11/18 10:40:38;;;;;;;;;;;;;;;9.12;100.00;100101.94;5010270;28;20003;-70
2022/11/18 10:43:03;;;;;;;;;;;;;;;9.12;100.00;100093.66;5003494;28;19924;-71
2022/11/18 10:45:30;;;;;;;;;;;;;;;9.17;100.00;100096.31;5010962;28;19917;-70
2022/11/18 10:47:57;;;;;;;;;;;;;;;9.28;100.00;100096.84;5010941;28;19923;-71
2022/11/18 10:50:49;;;;;;;;;;;;;;;9.30;100.00;100106.47;5011341;28;20353;-70
2022/11/18 10:53:42;;;;;;;;;;;;;;;9.25;100.00;100106.56;5008516;28;19914;-70
2022/11/18 10:56:10;;;;;;;;;;;;;;;9.32;100.00;100108.91;5007067;28;19917;-70
2022/11/18 10:58:36;;;;;;;;;;;;;;;9.29;100.00;100102.06;5010997;28;20361;-68
2022/11/18 11:01:18;;;;;;;;;;;;;;;9.32;100.00;100104.19;5011066;28;19917;-68
2022/11/18 11:04:01;;;;;;;;;;;;;;;9.37;100.00;100108.75;5010822;28;20074;-69
2022/11/18 11:06:26;;;;;;;;;;;;;;;9.40;100.00;100110.09;5010992;28;20103;-69
2022/11/18 11:08:51;;;;;;;;;;;;;;;9.46;100.00;100106.06;5010130;28;20008;-69
2022/11/18 11:11:24;;;;;;;;;;;;;;;9.51;100.00;100108.66;5010400;28;19919;-70
2022/11/18 11:13:50;;;;;;;;;;;;;;;9.50;100.00;100123.59;5010180;28;19917;-70
2022/11/18 11:16:18;;;;;;;;;;;;;;;9.52;100.00;100118.56;5010499;28;19967;-70
2022/11/18 11:18:45;;;;;;;;;;;;;;;9.54;100.00;100121.03;5010644;28;19917;-71
2022/11/18 11:21:10;;;;;;;;;;;;;;;9.49;100.00;100122.00;5010321;28;19922;-71
2022/11/18 11:23:35;;;;;;;;;;;;;;;9.44;100.00;100120.19;5009225;28;19913;-70
2022/11/18 11:26:23;;;;;;;;;;;;;;;9.36;100.00;100115.41;5010169;28;19924;-71
2022/11/18 11:28:52;;;;;;;;;;;;;;;9.33;100.00;100121.56;5001902;28;20060;-70
2022/11/18 11:31:23;;;;;;;;;;;;;;;9.31;100.00;100129.34;5010154;28;19920;-70
2022/11/18 11:34:06;;;;;;;;;;;;;;;9.27;100.00;100137.44;5009929;28;19920;-70
2022/11/18 11:37:00;;;;;;;;;;;;;;;9.25;100.00;100128.66;5006998;28;19921;-69
2022/11/18 11:39:37;;;;;;;;;;;;;;;9.21;100.00;100134.00;5009926;28;19939;-69
2022/11/18 11:42:08;;;;;;;;;;;;;;;9.22;100.00;100134.78;5009436;28;19913;-69
2022/11/18 11:44:52;;;;;;;;;;;;;;;9.25;100.00;100136.13;5009096;28;19924;-68
2022/11/18 11:50:29;;;;;;;;;;;;;;;9.32;100.00;100144.78;5007990;28;19928;-69
2022/11/18 11:53:02;;;;;;;;;;;;;;;9.34;100.00;100146.09;5009649;28;19924;-69
2022/11/18 11:55:34;;;;;;;;;;;;;;;9.49;100.00;100136.59;5008780;28;19917;-68
2022/11/18 11:58:07;;;;;;;;;;;;;;;9.47;100.00;100140.81;5009829;28;19932;-69
2022/11/18 12:00:38;;;;;;;;;;;;;;;9.50;100.00;100145.69;5010286;28;20003;-68
2022/11/18 12:03:19;;;;;;;;;;;;;;;9.55;100.00;100144.72;5009674;28;19973;-69
2022/11/18 12:05:44;;;;;;;;;;;;;;;9.61;100.00;100137.97;5009612;28;19913;-68
2022/11/18 12:08:15;;;;;;;;;;;;;;;9.64;100.00;100140.91;5008528;28;20388;-67
2022/11/18 12:10:43;;;;;;;;;;;;;;;9.51;100.00;100139.88;5007520;28;19928;-68
2022/11/18 12:13:27;;;;;;;;;;;;;;;9.52;100.00;100143.44;5007720;28;20012;-69
2022/11/18 12:16:07;;;;;;;;;;;;;;;9.57;100.00;100145.25;5008194;28;19928;-69
2022/11/18 12:18:39;;;;;;;;;;;;;;;9.52;100.00;100144.25;5006627;28;20417;-68
2022/11/18 12:21:04;;;;;;;;;;;;;;;9.49;100.00;100150.41;5007111;28;19917;-69
2022/11/18 12:23:30;;;;;;;;;;;;;;;9.48;100.00;100146.00;5007618;28;19932;-69
2022/11/18 12:26:07;;;;;;;;;;;;;;;9.52;100.00;100140.66;5008636;28;19921;-69
2022/11/18 12:28:34;;;;;;;;;;;;;;;9.59;100.00;100143.78;5010951;28;19953;-69
2022/11/18 12:31:14;;;;;;;;;;;;;;;9.70;100.00;100141.59;5009692;28;19968;-69
2022/11/18 12:33:44;;;;;;;;;;;;;;;9.80;100.00;100146.00;5007785;28;19921;-69
2022/11/18 12:36:09;;;;;;;;;;;;;;;9.85;100.00;100148.66;5008263;28;19921;-69
2022/11/18 12:38:34;;;;;;;;;;;;;;;9.83;100.00;100151.72;5008234;28;19932;-68
2022/11/18 12:43:45;;;;;;;;;;;;;;;9.80;100.00;100152.38;5008453;28;19972;-68
2022/11/18 12:43:49;;;;;;;;;;;;;;;9.83;100.00;100148.16;5010499;28;19921;-69
2022/11/18 12:46:40;;;;;;;;;;;;;;;9.85;100.00;100148.66;5009124;28;19917;-68
2022/11/18 12:49:21;;;;;;;;;;;;;;;9.92;100.00;100146.22;5007002;28;19975;-68
2022/11/18 12:51:47;;;;;;;;;;;;;;;10.01;100.00;100151.81;5009031;28;20446;-68
2022/11/18 12:54:21;;;;;;;;;;;;;;;10.10;100.00;100154.59;5009070;28;19921;-68
2022/11/18 12:56:48;;;;;;;;;;;;;;;10.20;100.00;100154.28;5007150;28;20357;-68
2022/11/18 12:59:13;;;;;;;;;;;;;;;10.26;100.00;100161.28;5008129;28;19929;-68